sensor_id;sensor_type;location;lat;lon;timestamp;temperature;humidity
51765;DHT22;37835;53.256;6.456;2024-02-14T00:00:03;6.50;99.90
51765;DHT22;37835;53.256;6.456;2024-02-14T00:02:29;6.50;99.90
51765;DHT22;37835;53.256;6.456;2024-02-14T00:04:54;6.50;99.90
51765;DHT22;37835;53.256;6.456;2024-02-14T00:07:21;6.50;99.90
51765;DHT22;37835;53.256;6.456;2024-02-14T00:09:47;6.50;99.90
51765;DHT22;37835;53.256;6.456;2024-02-14T00:12:13;6.60;99.90
51765;DHT22;37835;53.256;6.456;2024-02-14T00:14:39;6.40;99.90
51765;DHT22;37835;53.256;6.456;2024-02-14T00:17:04;6.40;99.90
51765;DHT22;37835;53.256;6.456;2024-02-14T00:19:31;6.50;99.90
51765;DHT22;37835;53.256;6.456;2024-02-14T00:21:57;6.50;99.90
51765;DHT22;37835;53.256;6.456;2024-02-14T00:24:23;6.70;99.90
51765;DHT22;37835;53.256;6.456;2024-02-14T00:26:54;6.50;99.90
51765;DHT22;37835;53.256;6.456;2024-02-14T00:29:21;6.80;99.90
51765;DHT22;37835;53.256;6.456;2024-02-14T00:31:46;6.90;99.90
51765;DHT22;37835;53.256;6.456;2024-02-14T00:34:12;6.50;99.90
51765;DHT22;37835;53.256;6.456;2024-02-14T00:36:38;6.00;99.90
51765;DHT22;37835;53.256;6.456;2024-02-14T00:39:03;6.50;99.90
51765;DHT22;37835;53.256;6.456;2024-02-14T00:41:29;6.50;99.90
51765;DHT22;37835;53.256;6.456;2024-02-14T00:43:58;6.50;99.90
51765;DHT22;37835;53.256;6.456;2024-02-14T00:46:23;6.80;99.90
51765;DHT22;37835;53.256;6.456;2024-02-14T00:48:49;6.90;99.90
51765;DHT22;37835;53.256;6.456;2024-02-14T00:51:15;6.60;99.90
51765;DHT22;37835;53.256;6.456;2024-02-14T00:53:41;6.50;99.90
51765;DHT22;37835;53.256;6.456;2024-02-14T00:56:07;6.50;99.90
51765;DHT22;37835;53.256;6.456;2024-02-14T00:58:33;6.60;99.90
51765;DHT22;37835;53.256;6.456;2024-02-14T01:00:59;6.90;99.90
51765;DHT22;37835;53.256;6.456;2024-02-14T01:03:24;6.70;99.90
51765;DHT22;37835;53.256;6.456;2024-02-14T01:05:50;6.60;99.90
51765;DHT22;37835;53.256;6.456;2024-02-14T01:08:16;6.60;99.90
51765;DHT22;37835;53.256;6.456;2024-02-14T01:10:42;6.60;99.90
51765;DHT22;37835;53.256;6.456;2024-02-14T01:13:08;6.90;99.90
51765;DHT22;37835;53.256;6.456;2024-02-14T01:15:34;6.60;99.90
51765;DHT22;37835;53.256;6.456;2024-02-14T01:18:00;6.60;99.90
51765;DHT22;37835;53.256;6.456;2024-02-14T01:20:26;6.60;99.90
51765;DHT22;37835;53.256;6.456;2024-02-14T01:22:51;7.00;99.90
51765;DHT22;37835;53.256;6.456;2024-02-14T01:25:18;6.80;99.90
51765;DHT22;37835;53.256;6.456;2024-02-14T01:27:43;6.70;99.90
51765;DHT22;37835;53.256;6.456;2024-02-14T01:30:10;7.00;99.90
51765;DHT22;37835;53.256;6.456;2024-02-14T01:32:37;6.70;99.90
51765;DHT22;37835;53.256;6.456;2024-02-14T01:35:02;6.70;99.90
51765;DHT22;37835;53.256;6.456;2024-02-14T01:37:29;6.70;99.90
51765;DHT22;37835;53.256;6.456;2024-02-14T01:39:55;7.10;99.90
51765;DHT22;37835;53.256;6.456;2024-02-14T01:42:21;7.00;99.90
51765;DHT22;37835;53.256;6.456;2024-02-14T01:44:47;6.70;99.90
51765;DHT22;37835;53.256;6.456;2024-02-14T01:47:13;6.80;99.90
51765;DHT22;37835;53.256;6.456;2024-02-14T01:49:39;6.90;99.90
51765;DHT22;37835;53.256;6.456;2024-02-14T01:52:05;6.90;99.90
51765;DHT22;37835;53.256;6.456;2024-02-14T01:54:31;6.80;99.90
51765;DHT22;37835;53.256;6.456;2024-02-14T01:56:58;6.80;99.90
51765;DHT22;37835;53.256;6.456;2024-02-14T01:59:24;6.90;99.90
51765;DHT22;37835;53.256;6.456;2024-02-14T02:01:50;6.80;99.90
51765;DHT22;37835;53.256;6.456;2024-02-14T02:04:19;6.90;99.90
51765;DHT22;37835;53.256;6.456;2024-02-14T02:06:46;5.80;99.90
51765;DHT22;37835;53.256;6.456;2024-02-14T02:09:11;6.80;99.90
51765;DHT22;37835;53.256;6.456;2024-02-14T02:11:50;6.90;99.90
51765;DHT22;37835;53.256;6.456;2024-02-14T02:14:16;6.90;99.90
51765;DHT22;37835;53.256;6.456;2024-02-14T02:16:42;6.90;99.90
51765;DHT22;37835;53.256;6.456;2024-02-14T02:19:08;7.00;99.90
51765;DHT22;37835;53.256;6.456;2024-02-14T02:21:38;7.10;99.90
51765;DHT22;37835;53.256;6.456;2024-02-14T02:24:04;7.00;99.90
51765;DHT22;37835;53.256;6.456;2024-02-14T02:26:30;7.00;99.90
51765;DHT22;37835;53.256;6.456;2024-02-14T02:28:56;7.00;99.90
51765;DHT22;37835;53.256;6.456;2024-02-14T02:31:22;7.10;99.90
51765;DHT22;37835;53.256;6.456;2024-02-14T02:33:48;7.10;99.90
51765;DHT22;37835;53.256;6.456;2024-02-14T02:36:14;7.20;99.90
51765;DHT22;37835;53.256;6.456;2024-02-14T02:38:41;7.60;99.90
51765;DHT22;37835;53.256;6.456;2024-02-14T02:41:07;7.10;99.90
51765;DHT22;37835;53.256;6.456;2024-02-14T02:43:33;7.10;99.90
51765;DHT22;37835;53.256;6.456;2024-02-14T02:45:59;7.20;99.90
51765;DHT22;37835;53.256;6.456;2024-02-14T02:48:25;7.30;99.90
51765;DHT22;37835;53.256;6.456;2024-02-14T02:50:51;7.20;99.90
51765;DHT22;37835;53.256;6.456;2024-02-14T02:53:18;6.20;99.90
51765;DHT22;37835;53.256;6.456;2024-02-14T02:55:44;7.20;99.90
51765;DHT22;37835;53.256;6.456;2024-02-14T02:58:10;7.40;99.90
51765;DHT22;37835;53.256;6.456;2024-02-14T03:00:36;7.30;99.90
51765;DHT22;37835;53.256;6.456;2024-02-14T03:03:02;7.40;99.90
51765;DHT22;37835;53.256;6.456;2024-02-14T03:05:30;6.70;99.90
51765;DHT22;37835;53.256;6.456;2024-02-14T03:07:57;8.90;99.90
51765;DHT22;37835;53.256;6.456;2024-02-14T03:10:24;7.30;99.90
51765;DHT22;37835;53.256;6.456;2024-02-14T03:12:51;7.40;99.90
51765;DHT22;37835;53.256;6.456;2024-02-14T03:15:17;7.40;99.90
51765;DHT22;37835;53.256;6.456;2024-02-14T03:17:44;7.40;99.90
51765;DHT22;37835;53.256;6.456;2024-02-14T03:20:11;7.40;99.90
51765;DHT22;37835;53.256;6.456;2024-02-14T03:22:41;7.40;99.90
51765;DHT22;37835;53.256;6.456;2024-02-14T03:25:16;7.40;99.90
51765;DHT22;37835;53.256;6.456;2024-02-14T03:27:42;7.50;99.90
51765;DHT22;37835;53.256;6.456;2024-02-14T03:30:11;7.50;99.90
51765;DHT22;37835;53.256;6.456;2024-02-14T03:32:38;7.50;99.90
51765;DHT22;37835;53.256;6.456;2024-02-14T03:35:04;7.50;99.90
51765;DHT22;37835;53.256;6.456;2024-02-14T03:37:31;7.60;99.90
51765;DHT22;37835;53.256;6.456;2024-02-14T03:39:57;6.40;99.90
51765;DHT22;37835;53.256;6.456;2024-02-14T03:42:22;7.70;99.90
51765;DHT22;37835;53.256;6.456;2024-02-14T03:44:48;7.70;99.90
51765;DHT22;37835;53.256;6.456;2024-02-14T03:47:14;7.70;99.90
51765;DHT22;37835;53.256;6.456;2024-02-14T03:49:39;7.70;99.90
51765;DHT22;37835;53.256;6.456;2024-02-14T03:52:06;7.70;99.90
51765;DHT22;37835;53.256;6.456;2024-02-14T03:54:36;7.70;99.90
51765;DHT22;37835;53.256;6.456;2024-02-14T03:57:02;7.70;99.90
51765;DHT22;37835;53.256;6.456;2024-02-14T03:59:30;7.80;99.90
51765;DHT22;37835;53.256;6.456;2024-02-14T04:01:56;7.80;99.90
51765;DHT22;37835;53.256;6.456;2024-02-14T04:04:23;7.80;99.90
51765;DHT22;37835;53.256;6.456;2024-02-14T04:06:49;7.90;99.90
51765;DHT22;37835;53.256;6.456;2024-02-14T04:09:14;7.90;99.90
51765;DHT22;37835;53.256;6.456;2024-02-14T04:11:40;7.90;99.90
51765;DHT22;37835;53.256;6.456;2024-02-14T04:14:06;8.00;99.90
51765;DHT22;37835;53.256;6.456;2024-02-14T04:16:32;8.10;99.90
51765;DHT22;37835;53.256;6.456;2024-02-14T04:18:58;7.60;99.90
51765;DHT22;37835;53.256;6.456;2024-02-14T04:21:24;8.00;99.90
51765;DHT22;37835;53.256;6.456;2024-02-14T04:23:50;8.10;99.90
51765;DHT22;37835;53.256;6.456;2024-02-14T04:26:20;8.10;99.90
51765;DHT22;37835;53.256;6.456;2024-02-14T04:28:45;8.20;99.90
51765;DHT22;37835;53.256;6.456;2024-02-14T04:31:11;8.20;99.90
51765;DHT22;37835;53.256;6.456;2024-02-14T04:33:37;8.30;99.90
51765;DHT22;37835;53.256;6.456;2024-02-14T04:36:03;8.30;99.90
51765;DHT22;37835;53.256;6.456;2024-02-14T04:38:31;8.40;99.90
51765;DHT22;37835;53.256;6.456;2024-02-14T04:40:57;8.40;99.90
51765;DHT22;37835;53.256;6.456;2024-02-14T04:43:25;8.50;99.90
51765;DHT22;37835;53.256;6.456;2024-02-14T04:45:52;8.50;99.90
51765;DHT22;37835;53.256;6.456;2024-02-14T04:48:18;8.50;99.90
51765;DHT22;37835;53.256;6.456;2024-02-14T04:53:10;8.60;99.90
51765;DHT22;37835;53.256;6.456;2024-02-14T04:55:35;8.60;99.90
51765;DHT22;37835;53.256;6.456;2024-02-14T04:58:01;8.60;99.90
51765;DHT22;37835;53.256;6.456;2024-02-14T05:00:27;8.70;99.90
51765;DHT22;37835;53.256;6.456;2024-02-14T05:05:19;8.80;99.90
51765;DHT22;37835;53.256;6.456;2024-02-14T05:07:46;8.90;99.90
51765;DHT22;37835;53.256;6.456;2024-02-14T05:10:12;9.10;99.90
51765;DHT22;37835;53.256;6.456;2024-02-14T05:12:40;8.90;99.90
51765;DHT22;37835;53.256;6.456;2024-02-14T05:15:06;8.80;99.90
51765;DHT22;37835;53.256;6.456;2024-02-14T05:17:32;8.80;99.90
51765;DHT22;37835;53.256;6.456;2024-02-14T05:19:57;8.80;99.90
51765;DHT22;37835;53.256;6.456;2024-02-14T05:22:23;8.80;99.90
51765;DHT22;37835;53.256;6.456;2024-02-14T05:24:49;8.90;99.90
51765;DHT22;37835;53.256;6.456;2024-02-14T05:27:14;8.80;99.90
51765;DHT22;37835;53.256;6.456;2024-02-14T05:29:40;8.90;99.90
51765;DHT22;37835;53.256;6.456;2024-02-14T05:32:06;8.90;99.90
51765;DHT22;37835;53.256;6.456;2024-02-14T05:34:31;8.90;99.90
51765;DHT22;37835;53.256;6.456;2024-02-14T05:36:57;8.90;99.90
51765;DHT22;37835;53.256;6.456;2024-02-14T05:39:23;8.90;99.90
51765;DHT22;37835;53.256;6.456;2024-02-14T05:41:49;8.90;99.90
51765;DHT22;37835;53.256;6.456;2024-02-14T05:44:14;8.90;99.90
51765;DHT22;37835;53.256;6.456;2024-02-14T05:46:43;9.00;99.90
51765;DHT22;37835;53.256;6.456;2024-02-14T05:49:10;9.00;99.90
51765;DHT22;37835;53.256;6.456;2024-02-14T05:51:36;9.00;99.90
51765;DHT22;37835;53.256;6.456;2024-02-14T05:54:02;9.00;99.90
51765;DHT22;37835;53.256;6.456;2024-02-14T05:56:27;9.00;99.90
51765;DHT22;37835;53.256;6.456;2024-02-14T05:58:53;9.10;99.90
51765;DHT22;37835;53.256;6.456;2024-02-14T06:01:18;9.20;99.90
51765;DHT22;37835;53.256;6.456;2024-02-14T06:03:44;9.30;99.90
51765;DHT22;37835;53.256;6.456;2024-02-14T06:06:10;9.30;99.90
51765;DHT22;37835;53.256;6.456;2024-02-14T06:08:35;9.00;99.90
51765;DHT22;37835;53.256;6.456;2024-02-14T06:11:01;9.00;99.90
51765;DHT22;37835;53.256;6.456;2024-02-14T06:13:27;9.10;99.90
51765;DHT22;37835;53.256;6.456;2024-02-14T06:15:52;9.10;99.90
51765;DHT22;37835;53.256;6.456;2024-02-14T06:18:18;9.20;99.90
51765;DHT22;37835;53.256;6.456;2024-02-14T06:20:43;9.20;99.90
51765;DHT22;37835;53.256;6.456;2024-02-14T06:23:09;9.20;99.90
51765;DHT22;37835;53.256;6.456;2024-02-14T06:25:35;9.30;99.90
51765;DHT22;37835;53.256;6.456;2024-02-14T06:28:00;9.20;99.90
51765;DHT22;37835;53.256;6.456;2024-02-14T06:30:27;9.20;99.90
51765;DHT22;37835;53.256;6.456;2024-02-14T06:32:52;9.40;99.90
51765;DHT22;37835;53.256;6.456;2024-02-14T06:35:18;9.30;99.90
51765;DHT22;37835;53.256;6.456;2024-02-14T06:37:45;9.30;99.90
51765;DHT22;37835;53.256;6.456;2024-02-14T06:40:11;9.30;99.90
51765;DHT22;37835;53.256;6.456;2024-02-14T06:42:37;9.30;99.90
51765;DHT22;37835;53.256;6.456;2024-02-14T06:45:03;9.30;99.90
51765;DHT22;37835;53.256;6.456;2024-02-14T06:47:29;9.40;99.90
51765;DHT22;37835;53.256;6.456;2024-02-14T06:49:58;9.40;99.90
51765;DHT22;37835;53.256;6.456;2024-02-14T06:52:24;9.40;99.90
51765;DHT22;37835;53.256;6.456;2024-02-14T06:54:50;9.40;99.90
51765;DHT22;37835;53.256;6.456;2024-02-14T06:57:15;9.40;99.90
51765;DHT22;37835;53.256;6.456;2024-02-14T06:59:41;9.40;99.90
51765;DHT22;37835;53.256;6.456;2024-02-14T07:02:07;9.50;99.90
51765;DHT22;37835;53.256;6.456;2024-02-14T07:04:33;9.40;99.90
51765;DHT22;37835;53.256;6.456;2024-02-14T07:06:59;9.50;99.90
51765;DHT22;37835;53.256;6.456;2024-02-14T07:09:25;9.50;99.90
51765;DHT22;37835;53.256;6.456;2024-02-14T07:11:51;9.50;99.90
51765;DHT22;37835;53.256;6.456;2024-02-14T07:14:19;9.50;99.90
51765;DHT22;37835;53.256;6.456;2024-02-14T07:16:45;9.50;99.90
51765;DHT22;37835;53.256;6.456;2024-02-14T07:19:10;9.50;99.90
51765;DHT22;37835;53.256;6.456;2024-02-14T07:21:36;9.50;99.90
51765;DHT22;37835;53.256;6.456;2024-02-14T07:24:04;9.50;99.90
51765;DHT22;37835;53.256;6.456;2024-02-14T07:26:30;9.50;99.90
51765;DHT22;37835;53.256;6.456;2024-02-14T07:28:56;9.50;99.90
51765;DHT22;37835;53.256;6.456;2024-02-14T07:31:22;9.50;99.90
51765;DHT22;37835;53.256;6.456;2024-02-14T07:33:48;9.50;99.90
51765;DHT22;37835;53.256;6.456;2024-02-14T07:36:15;9.50;99.90
51765;DHT22;37835;53.256;6.456;2024-02-14T07:38:42;9.50;99.90
51765;DHT22;37835;53.256;6.456;2024-02-14T07:41:08;9.50;99.90
51765;DHT22;37835;53.256;6.456;2024-02-14T07:43:34;9.50;99.90
51765;DHT22;37835;53.256;6.456;2024-02-14T07:46:00;9.50;99.90
51765;DHT22;37835;53.256;6.456;2024-02-14T07:48:26;9.60;99.90
51765;DHT22;37835;53.256;6.456;2024-02-14T07:50:51;9.40;99.90
51765;DHT22;37835;53.256;6.456;2024-02-14T07:53:17;9.60;99.90
51765;DHT22;37835;53.256;6.456;2024-02-14T07:55:42;9.70;99.90
51765;DHT22;37835;53.256;6.456;2024-02-14T07:58:08;9.70;99.90
51765;DHT22;37835;53.256;6.456;2024-02-14T08:00:34;9.60;99.90
51765;DHT22;37835;53.256;6.456;2024-02-14T08:02:59;9.50;99.90
51765;DHT22;37835;53.256;6.456;2024-02-14T08:05:29;9.80;99.90
51765;DHT22;37835;53.256;6.456;2024-02-14T08:07:54;9.50;99.90
51765;DHT22;37835;53.256;6.456;2024-02-14T08:10:20;9.70;99.90
51765;DHT22;37835;53.256;6.456;2024-02-14T08:12:46;9.80;99.90
51765;DHT22;37835;53.256;6.456;2024-02-14T08:15:13;9.70;99.90
51765;DHT22;37835;53.256;6.456;2024-02-14T08:17:38;9.80;99.90
51765;DHT22;37835;53.256;6.456;2024-02-14T08:44:33;10.10;99.90
51765;DHT22;37835;53.256;6.456;2024-02-14T08:46:59;10.10;99.90
51765;DHT22;37835;53.256;6.456;2024-02-14T08:49:25;10.10;99.90
51765;DHT22;37835;53.256;6.456;2024-02-14T08:51:51;10.20;99.90
51765;DHT22;37835;53.256;6.456;2024-02-14T08:54:17;10.30;99.90
51765;DHT22;37835;53.256;6.456;2024-02-14T08:56:42;10.60;99.90
51765;DHT22;37835;53.256;6.456;2024-02-14T08:59:08;10.20;99.90
51765;DHT22;37835;53.256;6.456;2024-02-14T09:01:34;10.10;99.90
51765;DHT22;37835;53.256;6.456;2024-02-14T09:04:01;10.20;99.90
51765;DHT22;37835;53.256;6.456;2024-02-14T09:06:27;10.20;99.90
51765;DHT22;37835;53.256;6.456;2024-02-14T09:08:52;10.30;99.90
51765;DHT22;37835;53.256;6.456;2024-02-14T09:11:18;10.30;99.90
51765;DHT22;37835;53.256;6.456;2024-02-14T09:13:44;10.30;99.90
51765;DHT22;37835;53.256;6.456;2024-02-14T09:16:13;10.30;99.90
51765;DHT22;37835;53.256;6.456;2024-02-14T09:18:41;10.40;99.90
51765;DHT22;37835;53.256;6.456;2024-02-14T09:21:07;10.40;99.90
51765;DHT22;37835;53.256;6.456;2024-02-14T09:23:33;10.40;99.90
51765;DHT22;37835;53.256;6.456;2024-02-14T09:25:59;11.10;99.90
51765;DHT22;37835;53.256;6.456;2024-02-14T09:28:25;10.40;99.90
51765;DHT22;37835;53.256;6.456;2024-02-14T09:30:51;10.40;99.90
51765;DHT22;37835;53.256;6.456;2024-02-14T09:33:17;10.50;99.90
51765;DHT22;37835;53.256;6.456;2024-02-14T09:35:45;10.40;99.90
51765;DHT22;37835;53.256;6.456;2024-02-14T09:38:13;10.50;99.90
51765;DHT22;37835;53.256;6.456;2024-02-14T09:40:42;10.20;99.90
51765;DHT22;37835;53.256;6.456;2024-02-14T09:43:25;10.60;99.90
51765;DHT22;37835;53.256;6.456;2024-02-14T09:45:53;10.50;99.90
51765;DHT22;37835;53.256;6.456;2024-02-14T09:48:20;10.60;99.90
51765;DHT22;37835;53.256;6.456;2024-02-14T09:50:48;10.60;99.90
51765;DHT22;37835;53.256;6.456;2024-02-14T09:53:15;10.60;99.90
51765;DHT22;37835;53.256;6.456;2024-02-14T09:55:41;10.60;99.90
51765;DHT22;37835;53.256;6.456;2024-02-14T09:58:07;10.60;99.90
51765;DHT22;37835;53.256;6.456;2024-02-14T10:00:35;10.60;99.90
51765;DHT22;37835;53.256;6.456;2024-02-14T10:03:00;10.70;99.90
51765;DHT22;37835;53.256;6.456;2024-02-14T10:05:26;10.60;99.90
51765;DHT22;37835;53.256;6.456;2024-02-14T10:07:56;10.70;99.90
51765;DHT22;37835;53.256;6.456;2024-02-14T10:10:22;10.70;99.90
51765;DHT22;37835;53.256;6.456;2024-02-14T10:12:48;10.70;99.90
51765;DHT22;37835;53.256;6.456;2024-02-14T10:15:14;10.60;99.90
51765;DHT22;37835;53.256;6.456;2024-02-14T10:17:40;10.70;99.90
51765;DHT22;37835;53.256;6.456;2024-02-14T10:20:09;10.70;99.90
51765;DHT22;37835;53.256;6.456;2024-02-14T10:22:35;10.60;99.90
51765;DHT22;37835;53.256;6.456;2024-02-14T10:25:05;10.60;99.90
51765;DHT22;37835;53.256;6.456;2024-02-14T10:27:38;10.70;99.90
51765;DHT22;37835;53.256;6.456;2024-02-14T10:30:08;10.70;99.90
51765;DHT22;37835;53.256;6.456;2024-02-14T10:32:41;10.70;99.90
51765;DHT22;37835;53.256;6.456;2024-02-14T10:35:13;10.90;99.90
51765;DHT22;37835;53.256;6.456;2024-02-14T10:37:39;10.70;99.90
51765;DHT22;37835;53.256;6.456;2024-02-14T10:40:05;10.70;99.90
51765;DHT22;37835;53.256;6.456;2024-02-14T10:42:32;10.70;99.90
51765;DHT22;37835;53.256;6.456;2024-02-14T10:45:01;10.70;99.90
51765;DHT22;37835;53.256;6.456;2024-02-14T10:47:33;10.80;99.90
51765;DHT22;37835;53.256;6.456;2024-02-14T10:50:07;10.80;99.90
51765;DHT22;37835;53.256;6.456;2024-02-14T10:52:35;10.80;99.90
51765;DHT22;37835;53.256;6.456;2024-02-14T10:55:05;10.60;99.90
51765;DHT22;37835;53.256;6.456;2024-02-14T10:57:31;10.70;99.90
51765;DHT22;37835;53.256;6.456;2024-02-14T11:00:07;10.80;99.90
51765;DHT22;37835;53.256;6.456;2024-02-14T11:02:35;10.90;99.90
51765;DHT22;37835;53.256;6.456;2024-02-14T11:05:02;10.90;99.90
51765;DHT22;37835;53.256;6.456;2024-02-14T11:07:28;10.80;99.90
51765;DHT22;37835;53.256;6.456;2024-02-14T11:10:21;10.80;99.90
51765;DHT22;37835;53.256;6.456;2024-02-14T11:12:48;10.90;99.90
51765;DHT22;37835;53.256;6.456;2024-02-14T11:15:21;10.80;99.90
51765;DHT22;37835;53.256;6.456;2024-02-14T11:17:48;10.80;99.90
51765;DHT22;37835;53.256;6.456;2024-02-14T11:20:21;10.80;99.90
51765;DHT22;37835;53.256;6.456;2024-02-14T11:23:06;10.90;99.90
51765;DHT22;37835;53.256;6.456;2024-02-14T11:25:37;10.80;99.90
51765;DHT22;37835;53.256;6.456;2024-02-14T11:28:24;10.90;99.90
51765;DHT22;37835;53.256;6.456;2024-02-14T11:30:51;10.90;99.90
51765;DHT22;37835;53.256;6.456;2024-02-14T11:33:19;10.80;99.90
51765;DHT22;37835;53.256;6.456;2024-02-14T11:35:52;10.90;99.90
51765;DHT22;37835;53.256;6.456;2024-02-14T11:38:22;10.90;99.90
51765;DHT22;37835;53.256;6.456;2024-02-14T11:40:49;10.90;99.90
51765;DHT22;37835;53.256;6.456;2024-02-14T11:43:19;11.00;99.90
51765;DHT22;37835;53.256;6.456;2024-02-14T11:45:46;11.00;99.90
51765;DHT22;37835;53.256;6.456;2024-02-14T11:48:16;11.00;99.90
51765;DHT22;37835;53.256;6.456;2024-02-14T11:50:43;11.00;99.90
51765;DHT22;37835;53.256;6.456;2024-02-14T11:53:14;11.00;99.90
51765;DHT22;37835;53.256;6.456;2024-02-14T11:55:42;11.00;99.90
51765;DHT22;37835;53.256;6.456;2024-02-14T11:58:08;11.00;99.90
51765;DHT22;37835;53.256;6.456;2024-02-14T12:00:38;10.90;99.90
51765;DHT22;37835;53.256;6.456;2024-02-14T12:03:06;11.00;99.90
51765;DHT22;37835;53.256;6.456;2024-02-14T12:05:34;11.10;99.90
51765;DHT22;37835;53.256;6.456;2024-02-14T12:08:00;11.10;99.90
51765;DHT22;37835;53.256;6.456;2024-02-14T12:10:26;11.00;99.90
51765;DHT22;37835;53.256;6.456;2024-02-14T12:12:52;10.90;99.90
51765;DHT22;37835;53.256;6.456;2024-02-14T12:15:18;11.20;99.90
51765;DHT22;37835;53.256;6.456;2024-02-14T12:17:45;11.10;99.90
51765;DHT22;37835;53.256;6.456;2024-02-14T12:20:12;11.10;99.90
51765;DHT22;37835;53.256;6.456;2024-02-14T12:22:40;11.20;99.90
51765;DHT22;37835;53.256;6.456;2024-02-14T12:25:07;11.20;99.90
51765;DHT22;37835;53.256;6.456;2024-02-14T12:27:37;11.40;99.90
51765;DHT22;37835;53.256;6.456;2024-02-14T12:30:04;11.20;99.90
51765;DHT22;37835;53.256;6.456;2024-02-14T12:32:30;11.20;99.90
51765;DHT22;37835;53.256;6.456;2024-02-14T12:34:56;11.20;99.90
51765;DHT22;37835;53.256;6.456;2024-02-14T12:37:23;11.20;99.90
51765;DHT22;37835;53.256;6.456;2024-02-14T12:39:48;11.40;99.90
51765;DHT22;37835;53.256;6.456;2024-02-14T12:42:15;11.30;99.90
51765;DHT22;37835;53.256;6.456;2024-02-14T12:44:40;11.30;99.90
51765;DHT22;37835;53.256;6.456;2024-02-14T12:47:06;11.30;99.90
51765;DHT22;37835;53.256;6.456;2024-02-14T12:49:34;11.30;99.90
51765;DHT22;37835;53.256;6.456;2024-02-14T12:51:59;11.30;99.90
51765;DHT22;37835;53.256;6.456;2024-02-14T12:54:25;11.40;99.90
51765;DHT22;37835;53.256;6.456;2024-02-14T12:56:52;11.40;99.90
51765;DHT22;37835;53.256;6.456;2024-02-14T12:59:18;11.30;99.90
51765;DHT22;37835;53.256;6.456;2024-02-14T13:01:44;11.30;99.90
51765;DHT22;37835;53.256;6.456;2024-02-14T13:04:10;11.30;99.90
51765;DHT22;37835;53.256;6.456;2024-02-14T13:06:36;11.40;99.90
51765;DHT22;37835;53.256;6.456;2024-02-14T13:09:03;11.40;99.90
51765;DHT22;37835;53.256;6.456;2024-02-14T13:11:31;11.40;99.90
51765;DHT22;37835;53.256;6.456;2024-02-14T13:13:58;11.60;99.90
51765;DHT22;37835;53.256;6.456;2024-02-14T13:16:24;11.40;99.90
51765;DHT22;37835;53.256;6.456;2024-02-14T13:18:50;11.40;99.90
51765;DHT22;37835;53.256;6.456;2024-02-14T13:21:15;11.50;99.90
51765;DHT22;37835;53.256;6.456;2024-02-14T13:23:42;11.40;99.90
51765;DHT22;37835;53.256;6.456;2024-02-14T13:26:08;11.50;99.90
51765;DHT22;37835;53.256;6.456;2024-02-14T13:28:34;11.40;99.90
51765;DHT22;37835;53.256;6.456;2024-02-14T13:31:00;11.50;99.90
51765;DHT22;37835;53.256;6.456;2024-02-14T13:33:26;11.50;99.90
51765;DHT22;37835;53.256;6.456;2024-02-14T13:35:52;11.40;99.90
51765;DHT22;37835;53.256;6.456;2024-02-14T13:38:19;11.50;99.90
51765;DHT22;37835;53.256;6.456;2024-02-14T13:40:44;11.50;99.90
51765;DHT22;37835;53.256;6.456;2024-02-14T13:43:10;11.50;99.90
51765;DHT22;37835;53.256;6.456;2024-02-14T13:45:42;11.40;99.90
51765;DHT22;37835;53.256;6.456;2024-02-14T13:48:08;11.30;99.90
51765;DHT22;37835;53.256;6.456;2024-02-14T13:50:35;11.40;99.90
51765;DHT22;37835;53.256;6.456;2024-02-14T13:53:00;11.40;99.90
51765;DHT22;37835;53.256;6.456;2024-02-14T13:55:26;11.40;99.90
51765;DHT22;37835;53.256;6.456;2024-02-14T13:57:52;11.40;99.90
51765;DHT22;37835;53.256;6.456;2024-02-14T14:00:17;11.40;99.90
51765;DHT22;37835;53.256;6.456;2024-02-14T14:02:43;11.30;99.90
51765;DHT22;37835;53.256;6.456;2024-02-14T14:05:09;11.20;99.90
51765;DHT22;37835;53.256;6.456;2024-02-14T14:07:39;11.30;99.90
51765;DHT22;37835;53.256;6.456;2024-02-14T14:10:05;11.30;99.90
51765;DHT22;37835;53.256;6.456;2024-02-14T14:12:32;11.30;99.90
51765;DHT22;37835;53.256;6.456;2024-02-14T14:14:58;11.40;99.90
51765;DHT22;37835;53.256;6.456;2024-02-14T14:17:23;11.40;99.90
51765;DHT22;37835;53.256;6.456;2024-02-14T14:19:49;11.00;99.90
51765;DHT22;37835;53.256;6.456;2024-02-14T14:22:16;11.40;99.90
51765;DHT22;37835;53.256;6.456;2024-02-14T14:24:42;11.40;99.90
51765;DHT22;37835;53.256;6.456;2024-02-14T14:27:07;11.40;99.90
51765;DHT22;37835;53.256;6.456;2024-02-14T14:29:40;11.40;99.90
51765;DHT22;37835;53.256;6.456;2024-02-14T14:32:10;11.40;99.90
51765;DHT22;37835;53.256;6.456;2024-02-14T14:34:36;11.20;99.90
51765;DHT22;37835;53.256;6.456;2024-02-14T14:37:02;11.10;99.90
51765;DHT22;37835;53.256;6.456;2024-02-14T14:39:28;11.20;99.90
51765;DHT22;37835;53.256;6.456;2024-02-14T14:41:54;11.40;99.90
51765;DHT22;37835;53.256;6.456;2024-02-14T14:44:24;11.40;99.90
51765;DHT22;37835;53.256;6.456;2024-02-14T14:46:50;11.40;99.90
51765;DHT22;37835;53.256;6.456;2024-02-14T14:49:16;11.70;99.90
51765;DHT22;37835;53.256;6.456;2024-02-14T14:51:42;11.40;99.90
51765;DHT22;37835;53.256;6.456;2024-02-14T14:54:09;11.50;99.90
51765;DHT22;37835;53.256;6.456;2024-02-14T14:56:35;11.40;99.90
51765;DHT22;37835;53.256;6.456;2024-02-14T14:59:00;11.50;99.90
51765;DHT22;37835;53.256;6.456;2024-02-14T15:01:30;11.40;99.90
51765;DHT22;37835;53.256;6.456;2024-02-14T15:03:56;11.50;99.90
51765;DHT22;37835;53.256;6.456;2024-02-14T15:06:21;11.40;99.90
51765;DHT22;37835;53.256;6.456;2024-02-14T15:08:47;11.50;99.90
51765;DHT22;37835;53.256;6.456;2024-02-14T15:11:13;11.40;99.90
51765;DHT22;37835;53.256;6.456;2024-02-14T15:13:42;11.40;99.90
51765;DHT22;37835;53.256;6.456;2024-02-14T15:16:08;11.50;99.90
51765;DHT22;37835;53.256;6.456;2024-02-14T15:18:36;11.50;99.90
51765;DHT22;37835;53.256;6.456;2024-02-14T15:21:02;11.50;99.90
51765;DHT22;37835;53.256;6.456;2024-02-14T15:23:29;11.40;99.90
51765;DHT22;37835;53.256;6.456;2024-02-14T15:25:54;11.40;99.90
51765;DHT22;37835;53.256;6.456;2024-02-14T15:28:28;11.50;99.90
51765;DHT22;37835;53.256;6.456;2024-02-14T15:30:55;11.50;99.90
51765;DHT22;37835;53.256;6.456;2024-02-14T15:33:40;11.40;99.90
51765;DHT22;37835;53.256;6.456;2024-02-14T15:36:06;11.20;99.90
51765;DHT22;37835;53.256;6.456;2024-02-14T15:38:32;11.50;99.90
51765;DHT22;37835;53.256;6.456;2024-02-14T15:40:57;11.70;99.90
51765;DHT22;37835;53.256;6.456;2024-02-14T15:43:27;11.60;99.90
51765;DHT22;37835;53.256;6.456;2024-02-14T15:45:53;11.50;99.90
51765;DHT22;37835;53.256;6.456;2024-02-14T15:48:19;11.30;99.90
51765;DHT22;37835;53.256;6.456;2024-02-14T15:50:49;11.50;99.90
51765;DHT22;37835;53.256;6.456;2024-02-14T15:53:15;11.50;99.90
51765;DHT22;37835;53.256;6.456;2024-02-14T15:55:41;11.40;99.90
51765;DHT22;37835;53.256;6.456;2024-02-14T15:58:08;11.50;99.90
51765;DHT22;37835;53.256;6.456;2024-02-14T16:00:53;11.40;99.90
51765;DHT22;37835;53.256;6.456;2024-02-14T16:03:21;11.30;99.90
51765;DHT22;37835;53.256;6.456;2024-02-14T16:05:47;11.30;99.90